TimeCST,TemperatureF,Dew PointF,Humidity,Sea Level PressureIn,VisibilityMPH,Wind Direction,Wind SpeedMPH,Gust SpeedMPH,PrecipitationIn,Events,Conditions,WindDirDegrees,DateUTC
12:15 AM,33.8,30.2,87,29.83,7.0,SSE,10.4,-,N/A,,Overcast,150,2012-12-09 06:15:00
12:35 AM,33.8,30.2,87,29.83,7.0,SSE,10.4,16.1,N/A,,Overcast,150,2012-12-09 06:35:00
1:15 AM,33.8,30.2,87,29.82,5.0,SSE,10.4,17.3,N/A,,Overcast,160,2012-12-09 07:15:00
1:35 AM,33.8,30.2,87,29.82,5.0,SSE,8.1,-,N/A,,Overcast,150,2012-12-09 07:35:00
1:55 AM,33.8,30.2,87,29.82,5.0,SSE,11.5,17.3,N/A,,Overcast,160,2012-12-09 07:55:00
2:15 AM,33.8,30.2,87,29.82,5.0,SSE,10.4,-,N/A,,Overcast,150,2012-12-09 08:15:00
2:35 AM,33.8,30.2,87,29.82,5.0,SSE,9.2,-,N/A,,Overcast,160,2012-12-09 08:35:00
2:55 AM,33.8,30.2,87,29.80,4.0,SSE,11.5,18.4,N/A,Snow,Light Snow,150,2012-12-09 08:55:00
3:15 AM,33.8,30.2,87,29.78,3.0,SSE,12.7,17.3,N/A,Snow,Light Snow,150,2012-12-09 09:15:00
3:35 AM,33.8,30.2,87,29.78,4.0,SSE,10.4,18.4,N/A,Snow,Light Snow,160,2012-12-09 09:35:00
3:55 AM,33.8,30.2,87,29.78,5.0,South,11.5,-,N/A,,Overcast,180,2012-12-09 09:55:00
4:15 AM,33.8,30.2,87,29.78,5.0,South,9.2,16.1,N/A,,Overcast,170,2012-12-09 10:15:00
4:35 AM,33.8,30.2,87,29.77,4.0,South,8.1,-,N/A,,Overcast,180,2012-12-09 10:35:00
4:55 AM,33.8,30.2,87,29.77,4.0,South,10.4,-,N/A,,Overcast,190,2012-12-09 10:55:00
5:15 AM,33.8,30.2,87,29.77,4.0,South,9.2,-,N/A,,Overcast,180,2012-12-09 11:15:00
5:35 AM,33.8,30.2,87,29.78,4.0,SSW,10.4,-,N/A,,Overcast,200,2012-12-09 11:35:00
5:55 AM,33.8,30.2,87,29.78,4.0,SSW,10.4,-,N/A,,Overcast,210,2012-12-09 11:55:00
6:15 AM,33.8,30.2,87,29.79,7.0,West,9.2,-,N/A,,Overcast,270,2012-12-09 12:15:00
6:35 AM,33.8,30.2,87,29.78,10.0,West,9.2,-,N/A,,Overcast,270,2012-12-09 12:35:00
6:55 AM,33.8,28.4,81,29.80,10.0,West,12.7,-,N/A,,Overcast,260,2012-12-09 12:55:00
7:15 AM,30.2,26.6,86,29.80,10.0,West,16.1,23.0,N/A,,Overcast,270,2012-12-09 13:15:00
7:35 AM,30.2,26.6,86,29.80,10.0,West,18.4,23.0,N/A,,Overcast,260,2012-12-09 13:35:00
7:55 AM,28.4,24.8,86,29.82,10.0,West,18.4,-,N/A,,Overcast,260,2012-12-09 13:55:00
8:15 AM,28.4,21.2,74,29.83,10.0,WSW,21.9,-,N/A,,Overcast,250,2012-12-09 14:15:00
8:35 AM,26.6,21.2,80,29.83,10.0,West,16.1,-,N/A,,Overcast,260,2012-12-09 14:35:00
8:55 AM,26.6,21.2,80,29.83,10.0,WSW,15.0,20.7,N/A,,Overcast,240,2012-12-09 14:55:00
9:15 AM,26.6,21.2,80,29.83,10.0,West,16.1,21.9,N/A,,Overcast,260,2012-12-09 15:15:00
9:35 AM,23.0,19.4,86,29.84,10.0,West,18.4,-,N/A,,Overcast,270,2012-12-09 15:35:00
9:55 AM,23.0,17.6,80,29.84,10.0,West,19.6,26.5,N/A,,Overcast,260,2012-12-09 15:55:00
10:15 AM,21.2,17.6,86,29.85,10.0,WSW,17.3,-,N/A,,Overcast,250,2012-12-09 16:15:00
10:35 AM,21.2,17.6,86,29.85,10.0,West,20.7,24.2,N/A,,Overcast,260,2012-12-09 16:35:00
10:55 AM,21.2,17.6,86,29.83,10.0,West,25.3,-,N/A,,Overcast,260,2012-12-09 16:55:00
11:15 AM,21.2,17.6,86,29.82,10.0,West,23.0,-,N/A,,Overcast,260,2012-12-09 17:15:00
11:35 AM,19.4,15.8,86,29.81,7.0,West,23.0,-,N/A,,Overcast,270,2012-12-09 17:35:00
12:15 PM,21.2,17.6,86,29.79,10.0,West,25.3,29.9,N/A,,Overcast,280,2012-12-09 18:15:00
12:35 PM,23.0,19.4,86,29.80,10.0,West,25.3,32.2,N/A,,Overcast,280,2012-12-09 18:35:00
12:55 PM,24.8,19.4,80,29.80,10.0,WNW,28.8,34.5,N/A,,Overcast,300,2012-12-09 18:55:00
1:15 PM,24.8,19.4,80,29.80,10.0,WNW,25.3,35.7,N/A,,Overcast,300,2012-12-09 19:15:00
1:35 PM,24.8,19.4,80,29.82,10.0,NW,31.1,35.7,N/A,,Overcast,310,2012-12-09 19:35:00
1:55 PM,23.0,17.6,80,29.84,10.0,NW,28.8,35.7,N/A,,Overcast,310,2012-12-09 19:55:00
2:15 PM,21.2,17.6,86,29.85,10.0,NW,27.6,35.7,N/A,,Overcast,310,2012-12-09 20:15:00
2:35 PM,21.2,15.8,80,29.86,10.0,NW,25.3,34.5,N/A,,Overcast,320,2012-12-09 20:35:00
2:55 PM,19.4,15.8,86,29.87,10.0,NW,24.2,35.7,N/A,,Overcast,320,2012-12-09 20:55:00
3:15 PM,19.4,15.8,86,29.88,10.0,NW,21.9,31.1,N/A,,Overcast,320,2012-12-09 21:15:00
3:35 PM,19.4,15.8,86,29.89,7.0,NW,26.5,35.7,N/A,Snow,Light Snow,320,2012-12-09 21:35:00
3:55 PM,19.4,15.8,86,29.91,7.0,NW,20.7,32.2,N/A,Snow,Light Snow,320,2012-12-09 21:55:00
4:15 PM,19.4,15.8,86,29.93,5.0,NNW,19.6,29.9,N/A,Snow,Light Snow,330,2012-12-09 22:15:00
4:35 PM,17.6,14.0,86,29.93,3.0,NW,19.6,29.9,N/A,Snow,Light Snow,320,2012-12-09 22:35:00
4:55 PM,17.6,12.2,79,29.94,3.0,NNW,19.6,27.6,N/A,Snow,Light Snow,330,2012-12-09 22:55:00
5:15 PM,17.6,12.2,79,29.95,2.5,NNW,21.9,32.2,N/A,Snow,Light Snow,330,2012-12-09 23:15:00
5:35 PM,15.8,10.4,79,29.97,5.0,NNW,19.6,27.6,N/A,Snow,Light Snow,330,2012-12-09 23:35:00
5:55 PM,15.8,10.4,79,29.97,3.0,NNW,20.7,31.1,N/A,Snow,Light Snow,340,2012-12-09 23:55:00
6:15 PM,15.8,10.4,79,29.98,4.0,NW,23.0,32.2,N/A,Snow,Light Snow,320,2012-12-10 00:15:00
6:35 PM,15.8,10.4,79,29.99,5.0,NNW,24.2,31.1,N/A,Snow,Light Snow,340,2012-12-10 00:35:00
6:55 PM,15.8,10.4,79,30.00,7.0,NNW,16.1,31.1,N/A,Snow,Light Snow,340,2012-12-10 00:55:00
7:15 PM,14.0,10.4,86,30.01,5.0,NNW,18.4,28.8,N/A,Snow,Light Snow,330,2012-12-10 01:15:00
7:35 PM,14.0,8.6,79,30.02,10.0,NW,18.4,27.6,N/A,Snow,Light Snow,320,2012-12-10 01:35:00
7:55 PM,12.2,6.8,79,30.03,10.0,NW,23.0,29.9,N/A,,Overcast,320,2012-12-10 01:55:00
8:15 PM,12.2,6.8,79,30.03,10.0,NW,18.4,26.5,N/A,,Overcast,320,2012-12-10 02:15:00
8:35 PM,14.0,6.8,73,30.03,10.0,NW,21.9,28.8,N/A,,Overcast,320,2012-12-10 02:35:00
8:55 PM,14.0,6.8,73,30.03,10.0,NNW,19.6,28.8,N/A,,Overcast,330,2012-12-10 02:55:00
9:15 PM,14.0,6.8,73,30.04,10.0,NW,20.7,31.1,N/A,,Overcast,320,2012-12-10 03:15:00
9:35 PM,12.2,5.0,73,30.04,10.0,NNW,19.6,28.8,N/A,,Overcast,330,2012-12-10 03:35:00
9:55 PM,12.2,5.0,73,30.04,10.0,NNW,15.0,24.2,N/A,,Overcast,330,2012-12-10 03:55:00
10:15 PM,12.2,3.2,67,30.05,10.0,NNW,17.3,28.8,N/A,,Overcast,340,2012-12-10 04:15:00
10:35 PM,12.2,6.8,79,30.05,10.0,NNW,19.6,27.6,N/A,,Overcast,330,2012-12-10 04:35:00
10:55 PM,12.2,5.0,73,30.05,10.0,NNW,20.7,27.6,N/A,,Overcast,330,2012-12-10 04:55:00
11:15 PM,12.2,3.2,67,30.05,10.0,NNW,18.4,31.1,N/A,,Overcast,330,2012-12-10 05:15:00
11:35 PM,12.2,3.2,67,30.05,10.0,NNW,15.0,27.6,N/A,,Overcast,330,2012-12-10 05:35:00
11:55 PM,12.2,3.2,67,30.05,10.0,NW,17.3,21.9,N/A,,Overcast,320,2012-12-10 05:55:00